Time;durP1;ratioP1;P1;durP2;ratioP2;P2;SDS_P1;SDS_P2;PMS_P1;PMS_P2;Temp;Humidity;BMP_temperature;BMP_pressure;BME280_temperature;BME280_humidity;BME280_pressure;Samples;Min_cycle;Max_cycle;Signal;HPM_P1;HPM_P2
2023/11/04 00:01:13;;;;;;;18.23;16.70;;;;;;;;;;5005230;28;25118;-73
2023/11/04 00:03:39;;;;;;;17.42;15.80;;;;;;;;;;5001970;28;25053;-71
2023/11/04 00:06:05;;;;;;;17.80;16.65;;;;;;;;;;4992833;28;25121;-73
2023/11/04 00:08:31;;;;;;;17.23;16.20;;;;;;;;;;5012895;28;25057;-72
2023/11/04 00:10:57;;;;;;;17.40;16.00;;;;;;;;;;5010403;28;25056;-70
2023/11/04 00:13:23;;;;;;;16.02;14.63;;;;;;;;;;4998709;28;25078;-72
2023/11/04 00:15:49;;;;;;;17.40;16.30;;;;;;;;;;5024510;28;25098;-74
2023/11/04 00:18:15;;;;;;;16.83;15.68;;;;;;;;;;5004433;28;25060;-73
2023/11/04 00:20:41;;;;;;;20.95;19.42;;;;;;;;;;5002332;28;25099;-71
2023/11/04 00:23:07;;;;;;;22.58;21.20;;;;;;;;;;4983151;28;25075;-73
2023/11/04 00:25:33;;;;;;;25.48;23.85;;;;;;;;;;4984872;28;25054;-72
2023/11/04 00:28:01;;;;;;;27.17;25.25;;;;;;;;;;5007424;28;25056;-73
2023/11/04 00:30:27;;;;;;;22.27;20.98;;;;;;;;;;4982717;28;25217;-72
2023/11/04 00:32:53;;;;;;;26.50;24.90;;;;;;;;;;4983746;28;25111;-72
2023/11/04 00:35:19;;;;;;;26.95;25.10;;;;;;;;;;4994535;28;25076;-72
2023/11/04 00:37:45;;;;;;;28.45;26.85;;;;;;;;;;4983730;28;25079;-72
2023/11/04 00:40:11;;;;;;;27.33;25.35;;;;;;;;;;4986197;28;25071;-72
2023/11/04 00:42:37;;;;;;;28.33;26.60;;;;;;;;;;4984499;28;25125;-72
2023/11/04 00:45:03;;;;;;;31.60;29.80;;;;;;;;;;4996051;28;25063;-71
2023/11/04 00:47:29;;;;;;;32.97;30.85;;;;;;;;;;4988799;28;25142;-72
2023/11/04 00:49:55;;;;;;;31.00;29.00;;;;;;;;;;4987419;28;25099;-72
2023/11/04 00:52:21;;;;;;;35.15;33.08;;;;;;;;;;4992327;28;25079;-71
2023/11/04 00:54:47;;;;;;;38.63;36.42;;;;;;;;;;5010071;28;25085;-72
2023/11/04 00:57:13;;;;;;;36.25;34.10;;;;;;;;;;4998017;28;25069;-72
2023/11/04 00:59:39;;;;;;;32.42;30.55;;;;;;;;;;4990968;28;25082;-73
2023/11/04 01:02:05;;;;;;;35.55;33.30;;;;;;;;;;4983522;28;25062;-72
2023/11/04 01:04:31;;;;;;;38.10;35.80;;;;;;;;;;4987813;28;25052;-73
2023/11/04 01:06:57;;;;;;;35.80;33.70;;;;;;;;;;5002853;28;25072;-72
2023/11/04 01:09:23;;;;;;;36.63;34.22;;;;;;;;;;5001136;28;25055;-73
2023/11/04 01:11:49;;;;;;;34.65;32.60;;;;;;;;;;5012517;28;25083;-73
2023/11/04 01:14:15;;;;;;;35.38;33.22;;;;;;;;;;5015625;28;25078;-73
2023/11/04 01:16:41;;;;;;;35.13;33.00;;;;;;;;;;5002094;28;25092;-72
2023/11/04 01:19:07;;;;;;;43.85;41.15;;;;;;;;;;5011876;28;25169;-72
2023/11/04 01:21:33;;;;;;;38.22;35.90;;;;;;;;;;5007443;28;25078;-72
2023/11/04 01:23:59;;;;;;;34.95;32.58;;;;;;;;;;5002754;28;25054;-72
2023/11/04 01:26:25;;;;;;;41.63;39.20;;;;;;;;;;5002098;28;25135;-72
2023/11/04 01:28:51;;;;;;;42.10;39.40;;;;;;;;;;5011513;28;25062;-72
2023/11/04 01:31:17;;;;;;;46.33;43.33;;;;;;;;;;5009178;28;25063;-71
2023/11/04 01:33:43;;;;;;;51.83;48.45;;;;;;;;;;5009744;28;25096;-71
2023/11/04 01:36:10;;;;;;;51.85;48.65;;;;;;;;;;5010656;28;25087;-70
2023/11/04 01:38:36;;;;;;;51.40;48.42;;;;;;;;;;5006486;28;25070;-72
2023/11/04 01:41:02;;;;;;;47.95;45.15;;;;;;;;;;5010747;28;25080;-72
2023/11/04 01:43:29;;;;;;;51.45;48.40;;;;;;;;;;5013509;28;25089;-71
2023/11/04 01:46:12;;;;;;;52.47;49.05;;;;;;;;;;5016205;28;25082;-71
2023/11/04 01:48:39;;;;;;;51.50;48.08;;;;;;;;;;5018071;28;25079;-73
2023/11/04 01:51:05;;;;;;;50.90;47.70;;;;;;;;;;5008611;28;25054;-71
2023/11/04 01:53:32;;;;;;;49.08;45.95;;;;;;;;;;5005392;28;25062;-72
2023/11/04 01:55:59;;;;;;;55.03;51.35;;;;;;;;;;5009889;28;25071;-71
2023/11/04 01:58:25;;;;;;;54.58;51.20;;;;;;;;;;5000670;28;25068;-71
2023/11/04 02:00:51;;;;;;;49.00;45.67;;;;;;;;;;5006845;28;25082;-74
2023/11/04 02:03:17;;;;;;;48.40;45.45;;;;;;;;;;5004787;28;25069;-72
2023/11/04 02:05:43;;;;;;;45.38;42.58;;;;;;;;;;5005273;28;25139;-72
2023/11/04 02:08:09;;;;;;;46.03;43.33;;;;;;;;;;5010296;28;25045;-73
2023/11/04 02:10:35;;;;;;;42.55;40.10;;;;;;;;;;5003156;28;25071;-72
2023/11/04 02:13:02;;;;;;;40.15;37.92;;;;;;;;;;5007373;28;25113;-71
2023/11/04 02:15:27;;;;;;;43.08;40.25;;;;;;;;;;5017406;28;25060;-72
2023/11/04 02:17:53;;;;;;;51.60;48.53;;;;;;;;;;5013769;28;25155;-71
2023/11/04 02:20:20;;;;;;;59.92;56.25;;;;;;;;;;5016078;28;25059;-72
2023/11/04 02:22:46;;;;;;;57.33;53.42;;;;;;;;;;5014668;28;25082;-70
2023/11/04 02:25:13;;;;;;;55.83;52.53;;;;;;;;;;5004573;28;25082;-71
2023/11/04 02:27:42;;;;;;;52.75;49.33;;;;;;;;;;5008172;28;25155;-72
2023/11/04 02:30:10;;;;;;;51.33;48.05;;;;;;;;;;5010982;28;25129;-72
2023/11/04 02:32:37;;;;;;;52.33;49.10;;;;;;;;;;5014746;28;25058;-72
2023/11/04 02:35:04;;;;;;;49.47;46.17;;;;;;;;;;5011482;28;25068;-72
2023/11/04 02:37:30;;;;;;;49.13;45.95;;;;;;;;;;5006143;28;25099;-72
2023/11/04 02:39:56;;;;;;;53.80;50.35;;;;;;;;;;5006284;28;25061;-72
2023/11/04 02:42:22;;;;;;;55.63;52.10;;;;;;;;;;5013565;28;25054;-73
2023/11/04 02:44:48;;;;;;;55.05;51.80;;;;;;;;;;5013575;28;25076;-72
2023/11/04 02:47:14;;;;;;;54.35;50.88;;;;;;;;;;5004539;28;25054;-71
2023/11/04 02:49:40;;;;;;;61.60;57.53;;;;;;;;;;5013892;28;25076;-72
2023/11/04 02:52:07;;;;;;;58.05;54.47;;;;;;;;;;5012808;28;25076;-73
2023/11/04 02:54:33;;;;;;;59.03;55.13;;;;;;;;;;5017205;28;25082;-71
2023/11/04 02:56:59;;;;;;;65.50;61.08;;;;;;;;;;5011862;28;25100;-72
2023/11/04 02:59:27;;;;;;;62.50;58.50;;;;;;;;;;5016909;28;25150;-70
2023/11/04 03:01:53;;;;;;;62.88;58.90;;;;;;;;;;5017238;28;25010;-71
2023/11/04 03:04:19;;;;;;;64.35;59.88;;;;;;;;;;5015602;28;25085;-70
2023/11/04 03:06:45;;;;;;;67.88;63.42;;;;;;;;;;5012710;28;25059;-71
2023/11/04 03:09:12;;;;;;;68.75;64.05;;;;;;;;;;5019257;28;25125;-71
2023/11/04 03:11:39;;;;;;;67.55;63.25;;;;;;;;;;5007158;28;25059;-71
2023/11/04 03:14:05;;;;;;;65.07;60.65;;;;;;;;;;5009248;28;25100;-71
2023/11/04 03:16:31;;;;;;;63.97;59.75;;;;;;;;;;5006781;28;25127;-73
2023/11/04 03:18:57;;;;;;;62.38;58.28;;;;;;;;;;5010503;28;25058;-71
2023/11/04 03:21:23;;;;;;;67.47;62.95;;;;;;;;;;5004669;28;25044;-71
2023/11/04 03:23:49;;;;;;;61.13;57.45;;;;;;;;;;5011815;28;25077;-71
2023/11/04 03:26:17;;;;;;;60.85;56.92;;;;;;;;;;5006430;28;25055;-71
2023/11/04 03:28:43;;;;;;;63.55;59.55;;;;;;;;;;5012805;28;25059;-72
2023/11/04 03:31:09;;;;;;;70.38;65.97;;;;;;;;;;5004519;28;25057;-71
2023/11/04 03:33:35;;;;;;;76.53;71.63;;;;;;;;;;5011504;28;25086;-72
2023/11/04 03:36:01;;;;;;;77.45;72.05;;;;;;;;;;5007319;28;25076;-72
2023/11/04 03:38:27;;;;;;;76.85;71.32;;;;;;;;;;5013047;28;25111;-72
2023/11/04 03:40:53;;;;;;;87.63;81.72;;;;;;;;;;5009128;28;25066;-73
2023/11/04 03:43:20;;;;;;;87.03;81.20;;;;;;;;;;5014824;28;25059;-73
2023/11/04 03:45:46;;;;;;;87.78;81.57;;;;;;;;;;5007258;28;25061;-74
2023/11/04 03:48:12;;;;;;;95.05;88.35;;;;;;;;;;5001194;28;25075;-73
2023/11/04 03:50:38;;;;;;;96.45;89.53;;;;;;;;;;5003669;28;25144;-73
2023/11/04 03:53:04;;;;;;;92.43;85.97;;;;;;;;;;5027664;28;25072;-74
2023/11/04 03:55:30;;;;;;;94.13;86.93;;;;;;;;;;5035910;28;25111;-72
2023/11/04 03:57:56;;;;;;;94.15;86.97;;;;;;;;;;5021752;28;25097;-72
2023/11/04 04:00:22;;;;;;;95.57;88.47;;;;;;;;;;5010014;28;25083;-72
2023/11/04 04:02:49;;;;;;;93.07;86.35;;;;;;;;;;5006337;28;25045;-73
2023/11/04 04:05:15;;;;;;;89.57;83.28;;;;;;;;;;5018010;28;25059;-72
2023/11/04 04:07:41;;;;;;;88.78;82.38;;;;;;;;;;5015968;28;25069;-71
2023/11/04 04:10:07;;;;;;;93.93;87.10;;;;;;;;;;5006624;28;25060;-72
2023/11/04 04:12:33;;;;;;;87.85;81.32;;;;;;;;;;5009254;28;25090;-72
2023/11/04 04:14:59;;;;;;;76.50;71.00;;;;;;;;;;5008173;28;25119;-72
2023/11/04 04:17:25;;;;;;;77.72;72.35;;;;;;;;;;5011577;28;25088;-72
2023/11/04 04:19:51;;;;;;;79.90;74.38;;;;;;;;;;5006178;28;25093;-71
2023/11/04 04:22:17;;;;;;;76.82;71.50;;;;;;;;;;5008986;28;25168;-72
2023/11/04 04:24:43;;;;;;;73.00;67.80;;;;;;;;;;5009685;28;25057;-73
2023/11/04 04:27:09;;;;;;;69.65;64.55;;;;;;;;;;5006177;28;25078;-72
2023/11/04 04:29:35;;;;;;;71.93;66.85;;;;;;;;;;5003775;28;25136;-71
2023/11/04 04:32:01;;;;;;;65.05;60.35;;;;;;;;;;5007546;28;25159;-72
2023/11/04 04:34:27;;;;;;;66.75;62.05;;;;;;;;;;5007328;28;25145;-72
2023/11/04 04:36:53;;;;;;;73.97;68.55;;;;;;;;;;5004346;28;25078;-72
2023/11/04 04:39:19;;;;;;;75.80;70.38;;;;;;;;;;5005640;28;25048;-73
2023/11/04 04:41:45;;;;;;;79.28;73.70;;;;;;;;;;5006147;28;25057;-73
2023/11/04 04:44:11;;;;;;;92.45;85.10;;;;;;;;;;5010519;28;25188;-72
2023/11/04 04:46:39;;;;;;;81.18;75.47;;;;;;;;;;5011271;28;25135;-73
2023/11/04 04:49:05;;;;;;;80.65;74.70;;;;;;;;;;5012386;28;25064;-73
2023/11/04 04:51:31;;;;;;;80.43;74.93;;;;;;;;;;5014045;28;25070;-73
2023/11/04 04:53:57;;;;;;;78.90;73.05;;;;;;;;;;5012996;28;25079;-72
2023/11/04 04:56:23;;;;;;;82.63;76.38;;;;;;;;;;5023003;28;25073;-71
2023/11/04 04:58:49;;;;;;;80.32;74.72;;;;;;;;;;5018924;28;25052;-72
2023/11/04 05:01:18;;;;;;;75.35;69.32;;;;;;;;;;5017028;28;25181;-72
2023/11/04 05:03:45;;;;;;;69.30;64.45;;;;;;;;;;5014649;28;25156;-73
2023/11/04 05:06:11;;;;;;;73.75;68.53;;;;;;;;;;5014731;28;25076;-72
2023/11/04 05:08:37;;;;;;;70.60;65.82;;;;;;;;;;5010974;28;25052;-73
2023/11/04 05:11:03;;;;;;;69.72;64.75;;;;;;;;;;5008126;28;25080;-73
2023/11/04 05:13:29;;;;;;;66.10;61.55;;;;;;;;;;5012791;28;25087;-73
2023/11/04 05:15:55;;;;;;;66.10;61.30;;;;;;;;;;5014235;28;25074;-72
2023/11/04 05:18:21;;;;;;;59.85;55.80;;;;;;;;;;5012762;28;25062;-73
2023/11/04 05:20:47;;;;;;;55.15;51.67;;;;;;;;;;5021533;28;25071;-72
2023/11/04 05:23:16;;;;;;;53.33;49.63;;;;;;;;;;5017791;28;25060;-72
2023/11/04 05:25:42;;;;;;;54.78;50.80;;;;;;;;;;5017974;28;25054;-72
2023/11/04 05:28:08;;;;;;;52.85;48.95;;;;;;;;;;5014414;28;25143;-71
2023/11/04 05:30:38;;;;;;;55.05;51.13;;;;;;;;;;5013237;28;25060;-73
2023/11/04 05:33:06;;;;;;;51.05;47.10;;;;;;;;;;5015556;28;25059;-72
2023/11/04 05:35:32;;;;;;;51.08;47.72;;;;;;;;;;5015084;28;25081;-71
2023/11/04 05:37:59;;;;;;;49.72;46.38;;;;;;;;;;5013253;28;25093;-71
2023/11/04 05:40:25;;;;;;;47.30;43.78;;;;;;;;;;5009550;28;25131;-71
2023/11/04 05:42:51;;;;;;;46.53;43.45;;;;;;;;;;5017657;28;25067;-71
2023/11/04 05:45:17;;;;;;;47.20;43.53;;;;;;;;;;5011807;28;25062;-73
2023/11/04 05:47:45;;;;;;;44.33;41.40;;;;;;;;;;5011067;28;25069;-73
2023/11/04 05:50:11;;;;;;;48.55;45.35;;;;;;;;;;5016053;28;25087;-72
2023/11/04 05:52:37;;;;;;;50.20;46.50;;;;;;;;;;5017560;28;25068;-72
2023/11/04 05:55:03;;;;;;;45.45;42.10;;;;;;;;;;5009734;28;25168;-73
2023/11/04 05:57:29;;;;;;;44.20;40.97;;;;;;;;;;5008552;28;25069;-72
2023/11/04 05:59:55;;;;;;;45.83;42.50;;;;;;;;;;5012122;28;25147;-72
2023/11/04 06:02:21;;;;;;;50.90;47.60;;;;;;;;;;5015521;28;25150;-72
2023/11/04 06:04:47;;;;;;;51.17;47.55;;;;;;;;;;5016700;28;25168;-71
2023/11/04 06:07:13;;;;;;;55.38;50.97;;;;;;;;;;5008246;28;25069;-71
2023/11/04 06:09:39;;;;;;;57.60;52.63;;;;;;;;;;5014481;28;25107;-72
2023/11/04 06:12:05;;;;;;;65.25;60.58;;;;;;;;;;5010107;28;25059;-71
2023/11/04 06:14:32;;;;;;;63.45;58.75;;;;;;;;;;5014401;28;25065;-73
2023/11/04 06:16:58;;;;;;;63.88;59.35;;;;;;;;;;5007860;28;25099;-73
2023/11/04 06:19:24;;;;;;;65.30;60.75;;;;;;;;;;5010397;28;25065;-71
2023/11/04 06:21:50;;;;;;;60.67;56.20;;;;;;;;;;5011410;28;25075;-71
2023/11/04 06:24:16;;;;;;;59.58;55.45;;;;;;;;;;5008993;28;25054;-72
2023/11/04 06:26:42;;;;;;;64.10;59.13;;;;;;;;;;5007884;28;25095;-72
2023/11/04 06:29:08;;;;;;;62.88;58.10;;;;;;;;;;5001311;28;25163;-71
2023/11/04 06:31:34;;;;;;;58.33;54.15;;;;;;;;;;5010398;28;25083;-72
2023/11/04 06:34:00;;;;;;;56.53;51.97;;;;;;;;;;5012034;28;25078;-72
2023/11/04 06:36:31;;;;;;;55.97;52.25;;;;;;;;;;5007183;28;25083;-73
2023/11/04 06:38:57;;;;;;;61.33;56.78;;;;;;;;;;5018106;28;25061;-72
2023/11/04 06:41:24;;;;;;;57.05;52.70;;;;;;;;;;5022902;28;25051;-76
2023/11/04 06:43:52;;;;;;;57.25;52.90;;;;;;;;;;5016823;28;25289;-73
2023/11/04 06:46:18;;;;;;;57.67;53.70;;;;;;;;;;5012638;28;25089;-72
2023/11/04 06:48:44;;;;;;;58.75;54.25;;;;;;;;;;5012545;28;24811;-73
2023/11/04 06:51:10;;;;;;;60.47;55.95;;;;;;;;;;5022374;28;25074;-74
2023/11/04 06:53:36;;;;;;;60.75;55.97;;;;;;;;;;5022938;28;25073;-73
2023/11/04 06:56:02;;;;;;;63.00;57.95;;;;;;;;;;5021518;28;25089;-75
2023/11/04 06:58:29;;;;;;;61.67;56.97;;;;;;;;;;5019802;28;25157;-69
2023/11/04 07:00:55;;;;;;;63.20;59.10;;;;;;;;;;5006855;28;25148;-72
2023/11/04 07:03:21;;;;;;;56.20;51.80;;;;;;;;;;5008839;28;25160;-73
2023/11/04 07:05:47;;;;;;;54.83;50.55;;;;;;;;;;5012541;28;25132;-71
2023/11/04 07:08:14;;;;;;;53.15;48.85;;;;;;;;;;5010682;28;25080;-73
2023/11/04 07:10:40;;;;;;;52.75;48.97;;;;;;;;;;5013281;28;25071;-71
2023/11/04 07:13:11;;;;;;;49.00;45.00;;;;;;;;;;5016106;28;25068;-73
2023/11/04 07:15:37;;;;;;;48.17;44.70;;;;;;;;;;5020725;28;25055;-74
2023/11/04 07:18:07;;;;;;;51.35;47.42;;;;;;;;;;5017675;28;25067;-73
2023/11/04 07:20:37;;;;;;;48.55;45.22;;;;;;;;;;5008351;28;25049;-73
2023/11/04 07:23:03;;;;;;;47.95;44.25;;;;;;;;;;5001574;28;25151;-72
2023/11/04 07:25:30;;;;;;;51.63;47.80;;;;;;;;;;4989760;28;25081;-73
2023/11/04 07:27:58;;;;;;;51.15;47.42;;;;;;;;;;4996432;28;25103;-73
2023/11/04 07:30:24;;;;;;;44.30;40.88;;;;;;;;;;4982351;28;25129;-72
2023/11/04 07:32:50;;;;;;;48.78;45.05;;;;;;;;;;4993844;28;25060;-73
2023/11/04 07:35:16;;;;;;;48.30;44.30;;;;;;;;;;4999896;28;25056;-72
2023/11/04 07:37:42;;;;;;;50.00;46.10;;;;;;;;;;5011484;28;25067;-71
2023/11/04 07:40:08;;;;;;;50.08;46.60;;;;;;;;;;5016015;28;25107;-72
2023/11/04 07:42:35;;;;;;;44.15;41.13;;;;;;;;;;5014567;28;25065;-74
2023/11/04 07:45:01;;;;;;;40.97;37.28;;;;;;;;;;5016759;28;25055;-74
2023/11/04 07:47:27;;;;;;;37.80;34.95;;;;;;;;;;5014123;28;25091;-73
2023/11/04 07:49:53;;;;;;;32.83;30.35;;;;;;;;;;4997778;28;25068;-72
2023/11/04 07:52:19;;;;;;;30.60;27.95;;;;;;;;;;5000655;28;25072;-72
2023/11/04 07:54:45;;;;;;;34.00;31.27;;;;;;;;;;5000985;28;25129;-73
2023/11/04 07:57:11;;;;;;;36.20;33.40;;;;;;;;;;4998878;28;25053;-72
2023/11/04 07:59:37;;;;;;;30.27;28.23;;;;;;;;;;4997977;28;25138;-74
2023/11/04 08:02:03;;;;;;;36.00;33.58;;;;;;;;;;4994862;28;25078;-71
2023/11/04 08:04:30;;;;;;;34.50;31.90;;;;;;;;;;5004706;28;25050;-71
2023/11/04 08:06:56;;;;;;;31.67;29.23;;;;;;;;;;4992977;28;25061;-70
2023/11/04 08:09:22;;;;;;;36.22;33.15;;;;;;;;;;4990321;28;25062;-69
2023/11/04 08:11:47;;;;;;;32.90;30.33;;;;;;;;;;5001024;28;25060;-71
2023/11/04 08:14:14;;;;;;;35.53;32.63;;;;;;;;;;4984731;28;25104;-71
2023/11/04 08:16:40;;;;;;;33.65;30.95;;;;;;;;;;4990015;28;25069;-71
2023/11/04 08:19:06;;;;;;;31.85;29.05;;;;;;;;;;4988732;28;25094;-71
2023/11/04 08:21:32;;;;;;;31.88;29.42;;;;;;;;;;5001722;28;25066;-71
2023/11/04 08:23:58;;;;;;;29.95;26.98;;;;;;;;;;4992442;28;25128;-71
2023/11/04 08:26:24;;;;;;;27.58;24.83;;;;;;;;;;5001145;28;25056;-71
2023/11/04 08:28:51;;;;;;;23.15;21.08;;;;;;;;;;5000111;28;25157;-70
2023/11/04 08:31:17;;;;;;;22.50;20.48;;;;;;;;;;4993287;28;25131;-73
2023/11/04 08:33:44;;;;;;;25.13;20.80;;;;;;;;;;4992128;28;25158;-71
2023/11/04 08:36:10;;;;;;;21.42;19.60;;;;;;;;;;4998649;28;25137;-73
2023/11/04 08:38:36;;;;;;;15.38;14.13;;;;;;;;;;4990453;28;25103;-74
2023/11/04 08:41:02;;;;;;;17.75;16.05;;;;;;;;;;4978254;28;25135;-73
2023/11/04 08:43:28;;;;;;;21.70;15.77;;;;;;;;;;4994564;28;25070;-72
2023/11/04 08:45:54;;;;;;;15.80;14.25;;;;;;;;;;4988260;28;25074;-71
2023/11/04 08:48:20;;;;;;;16.15;14.63;;;;;;;;;;4998629;28;25125;-71
2023/11/04 08:50:46;;;;;;;16.23;13.60;;;;;;;;;;4987683;28;25069;-72
2023/11/04 08:53:12;;;;;;;17.25;15.43;;;;;;;;;;4990104;28;25162;-70
2023/11/04 08:55:38;;;;;;;15.88;14.20;;;;;;;;;;4988502;28;25054;-72
2023/11/04 08:58:04;;;;;;;18.20;16.50;;;;;;;;;;4993413;28;25066;-71
2023/11/04 09:00:30;;;;;;;21.70;19.58;;;;;;;;;;4991646;28;25056;-72
2023/11/04 09:02:56;;;;;;;17.90;15.68;;;;;;;;;;4993208;28;25153;-70
2023/11/04 09:05:22;;;;;;;19.50;17.48;;;;;;;;;;4991600;28;25046;-70
2023/11/04 09:07:49;;;;;;;17.27;15.32;;;;;;;;;;4994641;28;25080;-69
2023/11/04 09:10:16;;;;;;;16.45;14.90;;;;;;;;;;4991096;28;25057;-74
2023/11/04 09:12:42;;;;;;;17.58;16.15;;;;;;;;;;4996527;28;25121;-72
2023/11/04 09:15:10;;;;;;;18.73;16.17;;;;;;;;;;4974736;28;25071;-73
2023/11/04 09:17:36;;;;;;;26.10;13.63;;;;;;;;;;4987310;28;25072;-71
2023/11/04 09:20:02;;;;;;;11.43;10.32;;;;;;;;;;4994881;28;25072;-72
2023/11/04 09:22:28;;;;;;;15.13;11.20;;;;;;;;;;4974052;28;25055;-72
2023/11/04 09:24:54;;;;;;;11.88;9.48;;;;;;;;;;4997104;28;25060;-72
2023/11/04 09:27:20;;;;;;;11.45;10.23;;;;;;;;;;5003185;28;25076;-71
2023/11/04 09:29:46;;;;;;;10.57;8.68;;;;;;;;;;5001870;28;25070;-70
2023/11/04 09:32:12;;;;;;;14.18;8.95;;;;;;;;;;5000189;28;25086;-71
2023/11/04 09:34:37;;;;;;;14.43;9.20;;;;;;;;;;5003964;28;25089;-74
2023/11/04 09:37:03;;;;;;;12.90;8.98;;;;;;;;;;5005129;28;25069;-72
2023/11/04 09:39:29;;;;;;;9.93;8.77;;;;;;;;;;5005268;28;25057;-72
2023/11/04 09:41:57;;;;;;;13.43;6.82;;;;;;;;;;5004091;28;25197;-70
2023/11/04 09:44:23;;;;;;;6.43;4.53;;;;;;;;;;4992392;28;25071;-72
2023/11/04 09:46:50;;;;;;;10.75;5.50;;;;;;;;;;4999986;28;25055;-72
2023/11/04 09:49:16;;;;;;;10.32;5.45;;;;;;;;;;4990494;28;25137;-72
2023/11/04 09:51:43;;;;;;;14.48;4.82;;;;;;;;;;4988258;28;25142;-70
2023/11/04 09:54:11;;;;;;;5.57;3.80;;;;;;;;;;5005431;28;25096;-71
2023/11/04 09:56:37;;;;;;;8.13;3.78;;;;;;;;;;5006000;28;25078;-73
2023/11/04 09:59:07;;;;;;;8.30;3.47;;;;;;;;;;5006264;28;25077;-72
2023/11/04 10:01:33;;;;;;;9.52;3.10;;;;;;;;;;5007010;28;25079;-71
2023/11/04 10:03:59;;;;;;;7.47;3.90;;;;;;;;;;5003757;28;25083;-71
2023/11/04 10:06:26;;;;;;;8.38;3.65;;;;;;;;;;5007284;28;25150;-71
2023/11/04 10:08:52;;;;;;;6.10;3.80;;;;;;;;;;5006755;28;25100;-71
2023/11/04 10:11:18;;;;;;;11.15;4.18;;;;;;;;;;5006564;28;25054;-71
2023/11/04 10:13:44;;;;;;;8.85;4.40;;;;;;;;;;5005900;28;25056;-72
2023/11/04 10:16:12;;;;;;;8.73;4.82;;;;;;;;;;5003382;28;25068;-72
2023/11/04 10:18:38;;;;;;;10.00;5.25;;;;;;;;;;5007615;28;25053;-71
2023/11/04 10:21:05;;;;;;;10.75;5.90;;;;;;;;;;5003241;28;25149;-69
2023/11/04 10:23:31;;;;;;;9.40;5.45;;;;;;;;;;5010077;28;25140;-70
2023/11/04 10:26:03;;;;;;;8.77;4.95;;;;;;;;;;5011067;28;25068;-71
2023/11/04 10:28:29;;;;;;;14.20;4.35;;;;;;;;;;5007332;28;25093;-71
2023/11/04 10:31:01;;;;;;;8.68;3.95;;;;;;;;;;4988480;28;25064;-71
2023/11/04 10:33:28;;;;;;;14.18;4.57;;;;;;;;;;4984520;28;25125;-71
2023/11/04 10:35:54;;;;;;;12.70;4.35;;;;;;;;;;4981772;28;25086;-72
2023/11/04 10:38:22;;;;;;;7.75;4.22;;;;;;;;;;4980525;28;24795;-71
2023/11/04 10:40:49;;;;;;;5.60;4.13;;;;;;;;;;4983127;28;25078;-71
2023/11/04 10:43:16;;;;;;;6.53;3.63;;;;;;;;;;4976921;28;25163;-70
2023/11/04 10:45:49;;;;;;;6.82;3.45;;;;;;;;;;4978917;28;25065;-70
2023/11/04 10:48:17;;;;;;;7.63;5.43;;;;;;;;;;4977197;28;25084;-71
2023/11/04 10:50:45;;;;;;;6.88;6.32;;;;;;;;;;4981708;28;25058;-73
2023/11/04 10:53:28;;;;;;;11.18;9.75;;;;;;;;;;4991546;28;25064;-72
2023/11/04 10:55:54;;;;;;;17.73;16.13;;;;;;;;;;5018123;28;25083;-71
2023/11/04 10:58:27;;;;;;;23.80;22.10;;;;;;;;;;5019369;28;25065;-73
2023/11/04 11:00:54;;;;;;;31.30;29.30;;;;;;;;;;5012909;28;25073;-72
2023/11/04 11:03:20;;;;;;;32.38;30.35;;;;;;;;;;5018534;28;25086;-71
2023/11/04 11:05:47;;;;;;;35.60;33.28;;;;;;;;;;5015227;28;25122;-71
2023/11/04 11:08:15;;;;;;;38.28;35.95;;;;;;;;;;5019377;28;25142;-72
2023/11/04 11:10:47;;;;;;;36.20;34.05;;;;;;;;;;5012114;28;25056;-72
2023/11/04 11:13:24;;;;;;;42.40;39.50;;;;;;;;;;5005682;28;25117;-72
2023/11/04 11:15:50;;;;;;;48.75;45.38;;;;;;;;;;5005116;28;25156;-73
2023/11/04 11:18:25;;;;;;;56.65;52.88;;;;;;;;;;5012717;28;25061;-74
2023/11/04 11:20:52;;;;;;;62.83;58.47;;;;;;;;;;5008481;28;25075;-73
2023/11/04 11:23:25;;;;;;;81.97;76.55;;;;;;;;;;5006258;28;25105;-72
2023/11/04 11:25:51;;;;;;;93.07;86.30;;;;;;;;;;5001365;28;25051;-71
2023/11/04 11:28:17;;;;;;;95.53;88.45;;;;;;;;;;5004302;28;25061;-72
2023/11/04 11:30:43;;;;;;;103.18;95.97;;;;;;;;;;4999050;28;25060;-72
2023/11/04 11:33:14;;;;;;;103.00;95.63;;;;;;;;;;5014037;28;25083;-72
2023/11/04 11:35:55;;;;;;;103.00;95.75;;;;;;;;;;5002658;28;25088;-73
2023/11/04 11:38:21;;;;;;;112.25;103.95;;;;;;;;;;5009584;28;25062;-72
2023/11/04 11:40:47;;;;;;;120.47;111.38;;;;;;;;;;5022535;28;25074;-73
2023/11/04 11:43:13;;;;;;;114.10;105.47;;;;;;;;;;5027207;28;25071;-71
2023/11/04 11:45:39;;;;;;;107.55;99.15;;;;;;;;;;5033453;28;25076;-70
2023/11/04 11:48:06;;;;;;;71.80;66.00;;;;;;;;;;5013739;28;25054;-72
2023/11/04 11:50:32;;;;;;;121.35;111.47;;;;;;;;;;5021926;28;25109;-72
2023/11/04 11:52:58;;;;;;;124.88;114.85;;;;;;;;;;5009056;28;25066;-72
2023/11/04 11:55:24;;;;;;;125.53;115.53;;;;;;;;;;5014801;28;25052;-71
2023/11/04 11:57:51;;;;;;;125.07;114.90;;;;;;;;;;5001822;28;25066;-72
2023/11/04 12:00:17;;;;;;;84.40;77.70;;;;;;;;;;5015302;28;25078;-72
2023/11/04 12:02:43;;;;;;;64.18;58.83;;;;;;;;;;5011737;28;25044;-72
2023/11/04 12:05:09;;;;;;;65.30;59.50;;;;;;;;;;5013621;28;25045;-72
2023/11/04 12:07:35;;;;;;;68.35;62.50;;;;;;;;;;5017965;28;25096;-72
2023/11/04 12:10:02;;;;;;;80.45;73.53;;;;;;;;;;5008841;28;25076;-72
2023/11/04 12:12:28;;;;;;;90.45;82.57;;;;;;;;;;5015419;28;25165;-71
2023/11/04 12:15:09;;;;;;;95.20;87.30;;;;;;;;;;5003642;28;25085;-72
2023/11/04 12:17:36;;;;;;;99.53;91.17;;;;;;;;;;5006449;28;25073;-73
2023/11/04 12:20:04;;;;;;;105.80;96.85;;;;;;;;;;5000960;28;25176;-71
2023/11/04 12:22:30;;;;;;;104.55;95.55;;;;;;;;;;5000961;28;25074;-71
2023/11/04 12:24:56;;;;;;;106.07;97.07;;;;;;;;;;5009324;28;25119;-72
2023/11/04 12:27:22;;;;;;;107.97;98.82;;;;;;;;;;5008645;28;25078;-73
2023/11/04 12:29:55;;;;;;;108.22;98.80;;;;;;;;;;5004098;28;25096;-70
2023/11/04 12:32:26;;;;;;;111.25;101.95;;;;;;;;;;5005388;28;25090;-72
2023/11/04 12:34:56;;;;;;;110.80;101.50;;;;;;;;;;5007539;28;25165;-71
2023/11/04 12:37:22;;;;;;;107.57;98.60;;;;;;;;;;5009474;28;25054;-72
2023/11/04 12:39:48;;;;;;;114.03;104.25;;;;;;;;;;5017835;28;25084;-72
2023/11/04 12:42:14;;;;;;;108.63;99.30;;;;;;;;;;5021544;28;25067;-72
2023/11/04 12:44:40;;;;;;;107.38;98.18;;;;;;;;;;5016503;28;25111;-72
2023/11/04 12:47:07;;;;;;;102.65;93.88;;;;;;;;;;5011174;28;25153;-71
2023/11/04 12:49:33;;;;;;;103.03;94.53;;;;;;;;;;5001503;28;25066;-72
2023/11/04 12:52:00;;;;;;;112.50;103.18;;;;;;;;;;5008524;28;25114;-72
2023/11/04 12:54:26;;;;;;;102.57;93.55;;;;;;;;;;5007484;28;25068;-73
2023/11/04 12:56:52;;;;;;;106.55;97.45;;;;;;;;;;5010635;28;25069;-72
2023/11/04 12:59:18;;;;;;;109.97;100.75;;;;;;;;;;5005723;28;25134;-72
2023/11/04 13:01:44;;;;;;;105.70;96.72;;;;;;;;;;5006304;28;25081;-73
2023/11/04 13:04:10;;;;;;;108.30;99.03;;;;;;;;;;5009663;28;25146;-73
2023/11/04 13:06:36;;;;;;;104.13;95.53;;;;;;;;;;5003570;28;25082;-73
2023/11/04 13:09:02;;;;;;;112.45;102.75;;;;;;;;;;5009412;28;25058;-72
2023/11/04 13:11:28;;;;;;;98.55;90.10;;;;;;;;;;5009100;28;25151;-72
2023/11/04 13:13:54;;;;;;;103.38;94.57;;;;;;;;;;5002522;28;25079;-72
2023/11/04 13:16:20;;;;;;;108.97;99.97;;;;;;;;;;5005891;28;25179;-72
2023/11/04 13:18:46;;;;;;;111.63;102.43;;;;;;;;;;5004653;28;25070;-73
2023/11/04 13:21:13;;;;;;;117.40;107.65;;;;;;;;;;5011758;28;25098;-73
2023/11/04 13:23:39;;;;;;;108.20;99.25;;;;;;;;;;5011663;28;25060;-73
2023/11/04 13:26:05;;;;;;;117.47;107.38;;;;;;;;;;5014784;28;25063;-74
2023/11/04 13:28:31;;;;;;;122.55;112.45;;;;;;;;;;5011113;28;25077;-73
2023/11/04 13:30:57;;;;;;;103.55;94.57;;;;;;;;;;5002671;28;25153;-71
2023/11/04 13:33:23;;;;;;;111.78;102.43;;;;;;;;;;5006333;28;25075;-72
2023/11/04 13:35:49;;;;;;;105.15;96.28;;;;;;;;;;5007547;28;25103;-75
2023/11/04 13:38:15;;;;;;;111.40;101.68;;;;;;;;;;5013912;28;25068;-72
2023/11/04 13:40:41;;;;;;;95.35;87.45;;;;;;;;;;5006851;28;25070;-73
2023/11/04 13:43:08;;;;;;;81.05;73.95;;;;;;;;;;5004942;28;25133;-74
2023/11/04 13:45:34;;;;;;;80.82;73.90;;;;;;;;;;5003832;28;25054;-73
2023/11/04 13:48:02;;;;;;;86.82;79.40;;;;;;;;;;5007319;28;25075;-74
2023/11/04 13:50:28;;;;;;;92.45;84.40;;;;;;;;;;5008369;28;25085;-75
2023/11/04 13:52:54;;;;;;;90.97;83.28;;;;;;;;;;5010338;28;25091;-76
2023/11/04 13:55:20;;;;;;;88.28;80.22;;;;;;;;;;5012649;28;25064;-75
2023/11/04 13:57:46;;;;;;;86.72;78.97;;;;;;;;;;5008725;28;25050;-75
2023/11/04 14:00:12;;;;;;;87.35;79.95;;;;;;;;;;5019845;28;25138;-76
2023/11/04 14:02:39;;;;;;;96.30;88.18;;;;;;;;;;5016570;28;25136;-74
2023/11/04 14:05:05;;;;;;;98.43;90.32;;;;;;;;;;5017279;28;25073;-74
2023/11/04 14:07:31;;;;;;;90.28;82.68;;;;;;;;;;5017467;28;25057;-74
2023/11/04 14:09:57;;;;;;;89.82;82.22;;;;;;;;;;5019931;28;25078;-74
2023/11/04 14:12:23;;;;;;;91.07;82.97;;;;;;;;;;5018386;28;25095;-74